< < Back
Terminal Aerodrome Forecast


Current Version              Previous Versions:   1  2  3  4  5  6  7  8  9  

Terminal Aerodrome Forecast

954
FTUS42 KFFC 011134
TAFFTY
TAF
KFTY 011134Z 0112/0212 VRB03KT P6SM BKN150
     FM011500 17010G16KT P6SM SCT025 BKN050
     FM011800 17010KT P6SM VCSH OVC025
     FM012000 17007KT 5SM -RA BR OVC015
     FM012300 16007KT 2SM -RA BR OVC007
     FM020400 23012KT 2SM -RA BR OVC004=

Latest METAR

731
SAUS70 KWBC 011800 RRQ
MTRFTY
METAR KFTY 011753Z 16005KT 10SM BKN023 OVC029 12/06 A3009 RMK AO2 SLP189
T01220056 10122 20022 58029


USA.gov is the U.S. government's official web portal to all federal, state and local government web resources and services.